Terminal Aerodrome Forecast
Issued by NWS

Home | Current Version | Previous Version | Text Only | Print | Product List | Glossary On
Versions: 1 2 3 4 5 6 7 8 9 10 11 12 13 14
000
FTUS44 KBMX 300520
TAFEET
TAF
KEET 300520Z 3006/0106 32004KT P6SM FEW050
      TEMPO 3012/3016 SCT025
     FM301600 31007KT P6SM SCT080
     FM010100 00000KT P6SM SKC=

USA.gov is the U.S. government's official web portal to all federal, state and local government web resources and services.